createdAt,value
2018-05-16T00:00:10.849Z,96364.84
2018-05-16T00:02:36.681Z,96360.81
2018-05-16T00:05:02.821Z,96363.49
2018-05-16T00:07:28.693Z,96367.81
2018-05-16T00:09:54.563Z,96365.19
2018-05-16T00:12:20.408Z,96360.88
2018-05-16T00:14:46.271Z,96364.75
2018-05-16T00:17:12.118Z,96366.22
2018-05-16T00:19:37.948Z,96358.84
2018-05-16T00:22:03.816Z,96362.02
2018-05-16T00:24:29.673Z,96361.97
2018-05-16T00:26:55.518Z,96363.30
2018-05-16T00:29:21.368Z,96356.02
2018-05-16T00:31:47.225Z,96357.78
2018-05-16T00:34:13.049Z,96355.90
2018-05-16T00:36:38.908Z,96360.08
2018-05-16T00:39:04.741Z,96357.05
2018-05-16T00:41:30.605Z,96352.98
2018-05-16T00:43:56.453Z,96361.52
2018-05-16T00:46:22.312Z,96361.25
2018-05-16T00:48:48.159Z,96361.91
2018-05-16T00:51:26.266Z,96367.06
2018-05-16T00:53:52.130Z,96360.39
2018-05-16T00:56:17.985Z,96358.67
2018-05-16T00:58:43.847Z,96351.92
2018-05-16T01:01:09.699Z,96361.21
2018-05-16T01:03:35.576Z,96362.09
2018-05-16T01:06:01.453Z,96362.44
2018-05-16T01:08:27.333Z,96357.16
2018-05-16T01:10:53.196Z,96355.19
2018-05-16T01:13:19.104Z,96353.28
2018-05-16T01:15:44.928Z,96357.50
2018-05-16T01:18:10.818Z,96354.77
2018-05-16T01:20:36.666Z,96355.33
2018-05-16T01:23:02.546Z,96356.36
2018-05-16T01:25:28.398Z,96352.93
2018-05-16T01:27:54.225Z,96351.91
2018-05-16T01:30:20.088Z,96346.89
2018-05-16T01:32:45.921Z,96345.16
2018-05-16T01:35:11.780Z,96352.13
2018-05-16T01:37:37.625Z,96352.27
2018-05-16T01:40:03.683Z,96349.98
2018-05-16T01:42:29.454Z,96348.85
2018-05-16T01:44:55.406Z,96356.17
2018-05-16T01:47:21.216Z,96356.72
2018-05-16T01:49:47.309Z,96356.73
2018-05-16T01:52:13.263Z,96355.73
2018-05-16T01:54:39.167Z,96350.50
2018-05-16T01:57:05.049Z,96345.81
2018-05-16T01:59:31.107Z,96351.05
2018-05-16T02:01:57.499Z,96349.27
2018-05-16T02:04:23.724Z,96350.33
2018-05-16T02:06:49.600Z,96354.46
2018-05-16T02:09:15.425Z,96355.02
2018-05-16T02:11:41.257Z,96359.27
2018-05-16T02:14:07.093Z,96353.09
2018-05-16T02:16:32.929Z,96357.91
2018-05-16T02:18:58.773Z,96360.77
2018-05-16T02:21:24.602Z,96354.52
2018-05-16T02:23:50.433Z,96355.88
2018-05-16T02:26:16.266Z,96355.40
2018-05-16T02:28:42.113Z,96357.36
2018-05-16T02:31:07.945Z,96347.14
2018-05-16T02:33:33.817Z,96349.22
2018-05-16T02:35:59.699Z,96348.16
2018-05-16T02:38:25.561Z,96343.84
2018-05-16T02:40:51.412Z,96347.41
2018-05-16T02:43:17.280Z,96346.50
2018-05-16T02:45:43.121Z,96350.72
2018-05-16T02:48:08.989Z,96353.95
2018-05-16T02:50:34.836Z,96351.73
2018-05-16T02:53:00.713Z,96357.07
2018-05-16T02:55:26.596Z,96351.25
2018-05-16T02:57:52.470Z,96357.53
2018-05-16T03:00:18.335Z,96360.13
2018-05-16T03:02:44.187Z,96362.90
2018-05-16T03:05:10.041Z,96366.80
2018-05-16T03:07:35.908Z,96363.27
2018-05-16T03:10:01.793Z,96361.69
2018-05-16T03:12:27.687Z,96358.74
2018-05-16T03:14:53.529Z,96367.09
2018-05-16T03:17:19.382Z,96362.84
2018-05-16T03:19:45.248Z,96355.84
2018-05-16T03:22:11.137Z,96355.91
2018-05-16T03:24:37.008Z,96355.88
2018-05-16T03:27:02.894Z,96353.27
2018-05-16T03:29:28.720Z,96354.77
2018-05-16T03:31:54.558Z,96347.11
2018-05-16T03:34:20.409Z,96347.51
2018-05-16T03:36:46.300Z,96347.74
2018-05-16T03:39:12.124Z,96355.66
2018-05-16T03:41:37.988Z,96357.08
2018-05-16T03:44:03.831Z,96349.70
2018-05-16T03:46:29.689Z,96353.03
2018-05-16T03:48:55.566Z,96353.72
2018-05-16T03:51:21.425Z,96357.02
2018-05-16T03:53:47.279Z,96354.23
2018-05-16T03:56:13.148Z,96361.36
2018-05-16T03:58:51.511Z,96359.45
2018-05-16T04:01:29.689Z,96356.41
2018-05-16T04:04:07.798Z,96359.92
2018-05-16T04:06:33.672Z,96365.85
2018-05-16T04:08:59.555Z,96362.77
2018-05-16T04:11:25.381Z,96356.73
2018-05-16T04:13:51.231Z,96364.66
2018-05-16T04:16:17.072Z,96372.20
2018-05-16T04:18:42.961Z,96367.28
2018-05-16T04:21:08.807Z,96373.58
2018-05-16T04:23:34.663Z,96377.67
2018-05-16T04:26:00.505Z,96372.13
2018-05-16T04:28:26.372Z,96373.06
2018-05-16T04:30:52.202Z,96369.67
2018-05-16T04:33:18.100Z,96367.64
2018-05-16T04:35:43.933Z,96368.77
2018-05-16T04:38:09.768Z,96366.25
2018-05-16T04:40:35.644Z,96364.14
2018-05-16T04:43:01.475Z,96362.91
2018-05-16T04:45:27.338Z,96368.17
2018-05-16T04:47:53.185Z,96362.91
2018-05-16T04:50:19.054Z,96363.08
2018-05-16T04:52:44.920Z,96376.72
2018-05-16T04:55:10.749Z,96369.98
2018-05-16T04:57:36.597Z,96368.69
2018-05-16T05:00:02.496Z,96372.92
2018-05-16T05:02:28.415Z,96370.12
2018-05-16T05:04:54.214Z,96376.77
2018-05-16T05:07:20.049Z,96382.38
2018-05-16T05:09:45.884Z,96382.93
2018-05-16T05:12:11.738Z,96382.20
2018-05-16T05:14:37.553Z,96382.85
2018-05-16T05:17:03.429Z,96383.01
2018-05-16T05:19:29.286Z,96384.73
2018-05-16T05:21:55.113Z,96384.84
2018-05-16T05:24:21.021Z,96385.98
2018-05-16T05:26:46.880Z,96385.95
2018-05-16T05:29:12.734Z,96379.58
2018-05-16T05:31:38.577Z,96393.99
2018-05-16T05:34:04.398Z,96392.21
2018-05-16T05:36:30.245Z,96392.78
2018-05-16T05:38:56.096Z,96395.52
2018-05-16T05:41:21.940Z,96395.91
2018-05-16T05:43:47.785Z,96402.03
2018-05-16T05:46:13.632Z,96402.87
2018-05-16T05:48:39.469Z,96409.23
2018-05-16T05:51:05.313Z,96406.67
2018-05-16T05:53:31.168Z,96409.45
2018-05-16T05:55:57.095Z,96406.27
2018-05-16T05:58:22.967Z,96403.19
2018-05-16T06:00:48.829Z,96405.05
2018-05-16T06:03:14.700Z,96409.23
2018-05-16T06:05:40.873Z,96402.84
2018-05-16T06:08:06.753Z,96406.36
2018-05-16T06:10:32.605Z,96413.02
2018-05-16T06:12:58.448Z,96413.41
2018-05-16T06:15:24.317Z,96409.45
2018-05-16T06:17:50.144Z,96410.12
2018-05-16T06:20:16.035Z,96410.37
2018-05-16T06:22:41.893Z,96407.02
2018-05-16T06:25:07.761Z,96409.03
2018-05-16T06:27:33.616Z,96404.23
2018-05-16T06:29:59.473Z,96404.94
2018-05-16T06:32:25.313Z,96406.73
2018-05-16T06:34:51.184Z,96405.53
2018-05-16T06:37:17.020Z,96408.88
2018-05-16T06:39:42.877Z,96409.33
2018-05-16T06:42:08.715Z,96423.55
2018-05-16T06:44:34.533Z,96416.53
2018-05-16T06:47:00.369Z,96425.41
2018-05-16T06:49:26.211Z,96425.63
2018-05-16T06:51:52.092Z,96420.88
2018-05-16T06:54:17.929Z,96427.30
2018-05-16T06:56:43.773Z,96428.83
2018-05-16T06:59:09.613Z,96427.33
2018-05-16T07:01:35.444Z,96421.63
2018-05-16T07:04:01.385Z,96420.61
2018-05-16T07:06:27.185Z,96424.50
2018-05-16T07:08:53.052Z,96420.39
2018-05-16T07:11:18.893Z,96423.92
2018-05-16T07:13:44.760Z,96415.31
2018-05-16T07:16:10.598Z,96417.86
2018-05-16T07:18:36.473Z,96417.17
2018-05-16T07:21:02.318Z,96417.20
2018-05-16T07:23:28.148Z,96418.49
2018-05-16T07:25:54.117Z,96422.20
2018-05-16T07:28:19.977Z,96423.77
2018-05-16T07:30:45.824Z,96430.33
2018-05-16T07:33:11.712Z,96425.73
2018-05-16T07:35:37.536Z,96425.34
2018-05-16T07:38:03.360Z,96426.61
2018-05-16T07:40:29.201Z,96423.70
2018-05-16T07:42:55.017Z,96431.59
2018-05-16T07:45:20.875Z,96433.95
2018-05-16T07:47:46.720Z,96431.62
2018-05-16T07:50:12.569Z,96427.20
2018-05-16T07:52:38.373Z,96429.24
2018-05-16T07:55:04.361Z,96434.06
2018-05-16T07:57:30.222Z,96423.59
2018-05-16T07:59:56.065Z,96429.02
2018-05-16T08:02:21.893Z,96425.14
2018-05-16T08:04:47.736Z,96427.43
2018-05-16T08:07:13.570Z,96427.03
2018-05-16T08:09:39.393Z,96429.34
2018-05-16T08:12:05.217Z,96432.25
2018-05-16T08:14:31.049Z,96427.66
2018-05-16T08:16:56.901Z,96425.93
2018-05-16T08:19:22.785Z,96425.26
2018-05-16T08:21:48.677Z,96421.03
2018-05-16T08:24:14.617Z,96428.93
2018-05-16T08:26:40.461Z,96430.62
2018-05-16T08:29:06.309Z,96429.20
2018-05-16T08:31:32.158Z,96427.31
2018-05-16T08:33:57.981Z,96429.71
2018-05-16T08:36:23.844Z,96421.91
2018-05-16T08:38:49.704Z,96425.22
2018-05-16T08:41:15.600Z,96425.46
2018-05-16T08:43:41.459Z,96425.02
2018-05-16T08:46:07.351Z,96431.14
2018-05-16T08:48:33.283Z,96425.56
2018-05-16T08:50:59.073Z,96428.31
2018-05-16T08:53:24.920Z,96423.72
2018-05-16T08:55:50.789Z,96421.74
2018-05-16T08:58:16.636Z,96427.25
2018-05-16T09:00:42.469Z,96424.28
2018-05-16T09:03:08.341Z,96422.53
2018-05-16T09:05:34.184Z,96429.09
2018-05-16T09:08:00.031Z,96426.35
2018-05-16T09:10:25.920Z,96426.63
2018-05-16T09:12:51.761Z,96422.38
2018-05-16T09:15:17.609Z,96427.52
2018-05-16T09:17:43.496Z,96426.53
2018-05-16T09:20:09.389Z,96433.80
2018-05-16T09:22:35.241Z,96434.30
2018-05-16T09:25:01.110Z,96442.06
2018-05-16T09:27:26.949Z,96443.74
2018-05-16T09:29:52.780Z,96442.05
2018-05-16T09:32:18.642Z,96457.47
2018-05-16T09:34:44.477Z,96460.39
2018-05-16T09:37:10.325Z,96443.73
2018-05-16T09:39:36.188Z,96448.86
2018-05-16T09:42:02.041Z,96445.52
2018-05-16T09:44:27.888Z,96451.18
2018-05-16T09:46:53.735Z,96450.67
2018-05-16T09:49:19.596Z,96450.63
2018-05-16T09:51:45.541Z,96453.32
2018-05-16T09:54:11.440Z,96448.13
2018-05-16T09:56:37.282Z,96457.45
2018-05-16T09:59:03.146Z,96458.02
2018-05-16T10:01:28.987Z,96461.01
2018-05-16T10:03:54.871Z,96473.58
2018-05-16T10:06:20.774Z,96469.28
2018-05-16T10:08:46.637Z,96461.38
2018-05-16T10:11:19.400Z,96470.59
2018-05-16T10:13:45.261Z,96473.80
2018-05-16T10:16:11.104Z,96470.37
2018-05-16T10:18:36.966Z,96477.38
2018-05-16T10:21:02.797Z,96481.77
2018-05-16T10:23:28.638Z,96482.89
2018-05-16T10:25:54.554Z,96485.14
2018-05-16T10:28:20.405Z,96486.55
2018-05-16T10:30:46.285Z,96485.30
2018-05-16T10:33:12.118Z,96494.33
2018-05-16T10:35:37.961Z,96492.30
2018-05-16T10:38:03.828Z,96489.20
2018-05-16T10:40:29.674Z,96487.99
2018-05-16T10:42:55.526Z,96490.39
2018-05-16T10:45:21.397Z,96486.47
2018-05-16T10:47:47.251Z,96482.80
2018-05-16T10:50:13.091Z,96482.44
2018-05-16T10:52:38.932Z,96483.66
2018-05-16T10:55:04.801Z,96479.15
2018-05-16T10:57:30.703Z,96481.06
2018-05-16T10:59:56.481Z,96493.88
2018-05-16T11:02:22.310Z,96495.25
2018-05-16T11:04:48.124Z,96495.48
2018-05-16T11:07:13.968Z,96501.11
2018-05-16T11:09:39.857Z,96515.89
2018-05-16T11:12:05.714Z,96508.66
2018-05-16T11:14:31.550Z,96508.63
2018-05-16T11:16:57.379Z,96512.16
2018-05-16T11:19:23.221Z,96514.72
2018-05-16T11:21:49.071Z,96505.83
2018-05-16T11:24:14.971Z,96504.92
2018-05-16T11:26:40.816Z,96503.59
2018-05-16T11:29:06.642Z,96507.27
2018-05-16T11:31:32.488Z,96501.26
2018-05-16T11:33:58.340Z,96508.30
2018-05-16T11:36:24.177Z,96510.13
2018-05-16T11:38:50.037Z,96511.08
2018-05-16T11:41:15.920Z,96507.63
2018-05-16T11:43:41.804Z,96507.15
2018-05-16T11:46:07.645Z,96500.89
2018-05-16T11:48:33.480Z,96498.38
2018-05-16T11:50:59.349Z,96502.86
2018-05-16T11:53:25.198Z,96509.28
2018-05-16T11:55:51.054Z,96513.80
2018-05-16T11:58:16.908Z,96509.71
2018-05-16T12:00:42.765Z,96507.89
2018-05-16T12:03:08.617Z,96504.14
2018-05-16T12:05:34.470Z,96504.75
2018-05-16T12:08:00.407Z,96499.62
2018-05-16T12:10:26.246Z,96497.43
2018-05-16T12:12:52.085Z,96498.81
2018-05-16T12:15:17.977Z,96499.27
2018-05-16T12:17:43.812Z,96498.44
2018-05-16T12:20:09.677Z,96494.83
2018-05-16T12:22:35.542Z,96502.20
2018-05-16T12:25:01.489Z,96504.00
2018-05-16T12:27:27.362Z,96488.81
2018-05-16T12:29:53.245Z,96500.86
2018-05-16T12:32:19.103Z,96496.16
2018-05-16T12:34:44.953Z,96498.67
2018-05-16T12:37:10.812Z,96505.09
2018-05-16T12:39:36.659Z,96499.29
2018-05-16T12:42:02.517Z,96488.89
2018-05-16T12:44:28.373Z,96483.33
2018-05-16T12:46:54.228Z,96491.38
2018-05-16T12:49:20.117Z,96485.22
2018-05-16T12:51:45.936Z,96497.30
2018-05-16T12:54:11.801Z,96499.75
2018-05-16T12:56:37.676Z,96492.85
2018-05-16T12:59:03.508Z,96492.25
2018-05-16T13:01:29.424Z,96498.36
2018-05-16T13:03:55.230Z,96497.77
2018-05-16T13:06:21.100Z,96498.44
2018-05-16T13:08:46.945Z,96493.77
2018-05-16T13:11:12.792Z,96497.45
2018-05-16T13:13:38.649Z,96492.38
2018-05-16T13:16:04.473Z,96500.28
2018-05-16T13:18:30.301Z,96498.02
2018-05-16T13:20:56.154Z,96496.42
2018-05-16T13:23:22.021Z,96493.95
2018-05-16T13:25:47.939Z,96494.17
2018-05-16T13:28:13.820Z,96493.08
2018-05-16T13:30:39.680Z,96484.91
2018-05-16T13:33:05.556Z,96484.47
2018-05-16T13:35:31.465Z,96489.02
2018-05-16T13:37:57.340Z,96477.95
2018-05-16T13:40:23.179Z,96484.70
2018-05-16T13:42:49.017Z,96476.12
2018-05-16T13:45:14.904Z,96476.83
2018-05-16T13:47:40.777Z,96475.84
2018-05-16T13:50:06.632Z,96478.77
2018-05-16T13:52:32.504Z,96474.44
2018-05-16T13:54:58.351Z,96473.25
2018-05-16T13:57:24.212Z,96472.53
2018-05-16T13:59:50.057Z,96476.44
2018-05-16T14:02:15.955Z,96475.27
2018-05-16T14:04:41.801Z,96484.34
2018-05-16T14:07:07.672Z,96482.23
2018-05-16T14:09:33.537Z,96485.91
2018-05-16T14:11:59.409Z,96489.14
2018-05-16T14:14:25.260Z,96477.86
2018-05-16T14:16:51.121Z,96481.50
2018-05-16T14:19:16.996Z,96481.96
2018-05-16T14:21:42.865Z,96480.50
2018-05-16T14:24:08.824Z,96472.05
2018-05-16T14:26:34.659Z,96470.55
2018-05-16T14:29:00.541Z,96472.26
2018-05-16T14:31:26.413Z,96465.06
2018-05-16T14:33:52.323Z,96471.02
2018-05-16T14:36:18.215Z,96476.14
2018-05-16T14:38:44.128Z,96471.19
2018-05-16T14:41:10.017Z,96475.51
2018-05-16T14:43:35.874Z,96482.05
2018-05-16T14:46:02.655Z,96486.00
2018-05-16T14:48:28.619Z,96482.67
2018-05-16T14:50:54.471Z,96488.50
2018-05-16T14:53:20.360Z,96494.15
2018-05-16T14:55:46.225Z,96488.08
2018-05-16T14:58:12.084Z,96488.05
2018-05-16T15:00:38.014Z,96497.63
2018-05-16T15:03:03.880Z,96482.70
2018-05-16T15:05:29.841Z,96490.15
2018-05-16T15:07:55.714Z,96486.66
2018-05-16T15:10:21.617Z,96487.56
2018-05-16T15:12:47.470Z,96485.44
2018-05-16T15:15:13.317Z,96492.70
2018-05-16T15:17:39.165Z,96486.63
2018-05-16T15:20:05.039Z,96486.41
2018-05-16T15:22:30.938Z,96484.10
2018-05-16T15:24:56.977Z,96493.84
2018-05-16T15:27:22.885Z,96495.33
2018-05-16T15:29:48.680Z,96490.99
2018-05-16T15:32:14.564Z,96492.06
2018-05-16T15:34:40.419Z,96496.16
2018-05-16T15:37:06.305Z,96497.71
2018-05-16T15:39:32.178Z,96489.23
2018-05-16T15:41:58.034Z,96490.59
2018-05-16T15:44:23.912Z,96492.33
2018-05-16T15:46:49.826Z,96490.20
2018-05-16T15:49:15.585Z,96484.48
2018-05-16T15:51:41.430Z,96463.61
2018-05-16T15:54:07.304Z,96473.02
2018-05-16T15:56:33.204Z,96469.99
2018-05-16T15:58:59.107Z,96472.77
2018-05-16T16:01:24.965Z,96474.20
2018-05-16T16:03:50.848Z,96469.51
2018-05-16T16:06:16.765Z,96466.57
2018-05-16T16:08:42.605Z,96465.63
2018-05-16T16:11:08.472Z,96469.05
2018-05-16T16:13:34.341Z,96465.38
2018-05-16T16:16:00.213Z,96469.52
2018-05-16T16:18:26.100Z,96473.30
2018-05-16T16:20:51.980Z,96476.95
2018-05-16T16:23:17.817Z,96477.45
2018-05-16T16:25:43.699Z,96481.96
2018-05-16T16:28:09.557Z,96482.00
2018-05-16T16:30:35.408Z,96480.42
2018-05-16T16:33:01.282Z,96478.44
2018-05-16T16:35:27.137Z,96479.12
2018-05-16T16:37:53.088Z,96486.76
2018-05-16T16:40:18.961Z,96488.99
2018-05-16T16:42:44.836Z,96477.06
2018-05-16T16:45:10.688Z,96477.91
2018-05-16T16:47:36.569Z,96476.16
2018-05-16T16:50:02.460Z,96468.16
2018-05-16T16:52:28.325Z,96478.03
2018-05-16T16:54:54.209Z,96485.98
2018-05-16T16:57:20.116Z,96489.61
2018-05-16T16:59:45.958Z,96478.91
2018-05-16T17:02:11.851Z,96472.61
2018-05-16T17:04:37.775Z,96480.66
2018-05-16T17:07:03.649Z,96477.81
2018-05-16T17:09:29.522Z,96467.73
2018-05-16T17:11:55.372Z,96473.58
2018-05-16T17:14:21.253Z,96479.00
2018-05-16T17:16:47.146Z,96477.43
2018-05-16T17:19:12.989Z,96485.33
2018-05-16T17:21:38.813Z,96483.89
2018-05-16T17:24:04.702Z,96485.84
2018-05-16T17:26:30.545Z,96485.06
2018-05-16T17:28:56.430Z,96487.77
2018-05-16T17:31:22.280Z,96480.77
2018-05-16T17:33:48.177Z,96486.81
2018-05-16T17:36:14.014Z,96477.94
2018-05-16T17:38:39.893Z,96492.09
2018-05-16T17:41:05.745Z,96493.84
2018-05-16T17:43:31.608Z,96493.22
2018-05-16T17:45:57.472Z,96502.33
2018-05-16T17:48:23.304Z,96502.23
2018-05-16T17:50:49.143Z,96496.63
2018-05-16T17:53:15.012Z,96499.30
2018-05-16T17:55:40.891Z,96504.19
2018-05-16T17:58:06.741Z,96502.58
2018-05-16T18:00:32.607Z,96508.98
2018-05-16T18:02:58.465Z,96501.03
2018-05-16T18:05:24.347Z,96499.34
2018-05-16T18:07:50.197Z,96505.53
2018-05-16T18:10:16.023Z,96511.28
2018-05-16T18:12:41.913Z,96518.27
2018-05-16T18:15:20.122Z,96514.95
2018-05-16T18:17:46.024Z,96520.69
2018-05-16T18:20:11.889Z,96522.61
2018-05-16T18:22:37.753Z,96524.45
2018-05-16T18:25:03.654Z,96534.14
2018-05-16T18:27:29.516Z,96531.21
2018-05-16T18:29:55.362Z,96528.27
2018-05-16T18:32:21.197Z,96534.48
2018-05-16T18:34:47.055Z,96537.67
2018-05-16T18:37:13.009Z,96537.12
2018-05-16T18:39:38.883Z,96532.33
2018-05-16T18:42:04.752Z,96534.59
2018-05-16T18:44:30.657Z,96531.03
2018-05-16T18:46:56.502Z,96531.27
2018-05-16T18:49:22.404Z,96541.25
2018-05-16T18:51:48.263Z,96552.80
2018-05-16T18:54:14.149Z,96552.09
2018-05-16T18:56:40.026Z,96558.20
2018-05-16T18:59:05.919Z,96559.92
2018-05-16T19:01:31.794Z,96557.27
2018-05-16T19:03:57.681Z,96556.14
2018-05-16T19:06:23.548Z,96559.81
2018-05-16T19:08:49.434Z,96562.54
2018-05-16T19:11:15.267Z,96563.78
2018-05-16T19:13:41.156Z,96570.20
2018-05-16T19:16:06.981Z,96568.00
2018-05-16T19:18:32.840Z,96568.13
2018-05-16T19:20:58.712Z,96566.54
2018-05-16T19:23:24.580Z,96567.09
2018-05-16T19:25:50.429Z,96571.08
2018-05-16T19:28:16.273Z,96578.13
2018-05-16T19:30:42.117Z,96576.83
2018-05-16T19:33:07.962Z,96582.61
2018-05-16T19:35:33.848Z,96593.09
2018-05-16T19:37:59.757Z,96594.25
2018-05-16T19:40:25.637Z,96591.02
2018-05-16T19:42:51.524Z,96596.19
2018-05-16T19:45:17.409Z,96592.81
2018-05-16T19:47:43.266Z,96602.95
2018-05-16T19:50:09.089Z,96607.23
2018-05-16T19:52:34.965Z,96611.13
2018-05-16T19:55:00.824Z,96614.49
2018-05-16T19:57:26.736Z,96611.84
2018-05-16T19:59:52.576Z,96619.70
2018-05-16T20:02:18.468Z,96613.84
2018-05-16T20:04:44.306Z,96618.05
2018-05-16T20:07:10.177Z,96610.89
2018-05-16T20:09:36.017Z,96605.83
2018-05-16T20:12:01.880Z,96600.66
2018-05-16T20:14:27.792Z,96598.42
2018-05-16T20:16:53.613Z,96599.88
2018-05-16T20:19:19.458Z,96602.61
2018-05-16T20:21:45.312Z,96600.08
2018-05-16T20:24:11.177Z,96602.27
2018-05-16T20:26:37.057Z,96602.19
2018-05-16T20:29:03.095Z,96598.12
2018-05-16T20:31:29.134Z,96596.62
2018-05-16T20:33:55.060Z,96604.55
2018-05-16T20:36:20.964Z,96596.52
2018-05-16T20:38:46.797Z,96601.09
2018-05-16T20:41:12.633Z,96604.80
2018-05-16T20:43:38.469Z,96607.80
2018-05-16T20:46:04.334Z,96610.42
2018-05-16T20:48:30.184Z,96611.66
2018-05-16T20:50:56.040Z,96614.98
2018-05-16T20:53:21.893Z,96614.91
2018-05-16T20:55:47.766Z,96612.02
2018-05-16T20:58:13.613Z,96612.62
2018-05-16T21:00:39.457Z,96625.39
2018-05-16T21:03:05.299Z,96621.26
2018-05-16T21:05:31.176Z,96619.56
2018-05-16T21:07:57.072Z,96629.08
2018-05-16T21:10:22.937Z,96627.53
2018-05-16T21:12:48.812Z,96625.97
2018-05-16T21:15:14.692Z,96627.77
2018-05-16T21:17:40.569Z,96623.27
2018-05-16T21:20:06.445Z,96623.91
2018-05-16T21:22:32.302Z,96623.58
2018-05-16T21:24:58.147Z,96626.91
2018-05-16T21:27:24.056Z,96629.39
2018-05-16T21:29:49.912Z,96623.86
2018-05-16T21:32:15.750Z,96625.56
2018-05-16T21:34:41.597Z,96622.69
2018-05-16T21:37:07.516Z,96624.42
2018-05-16T21:39:33.359Z,96631.27
2018-05-16T21:41:59.210Z,96629.97
2018-05-16T21:44:25.074Z,96629.78
2018-05-16T21:46:50.910Z,96625.22
2018-05-16T21:49:16.749Z,96630.19
2018-05-16T21:51:42.604Z,96630.67
2018-05-16T21:54:08.516Z,96624.25
2018-05-16T21:56:34.387Z,96621.60
2018-05-16T21:59:00.251Z,96619.34
2018-05-16T22:01:26.114Z,96626.40
2018-05-16T22:03:51.971Z,96620.74
2018-05-16T22:06:17.820Z,96621.90
2018-05-16T22:08:43.680Z,96619.18
2018-05-16T22:11:09.571Z,96619.26
2018-05-16T22:13:35.423Z,96618.22
2018-05-16T22:16:01.342Z,96613.08
2018-05-16T22:18:27.192Z,96620.25
2018-05-16T22:20:59.960Z,96610.19
2018-05-16T22:23:25.794Z,96615.23
2018-05-16T22:25:51.665Z,96614.73
2018-05-16T22:28:17.505Z,96620.47
2018-05-16T22:30:49.405Z,96618.99
2018-05-16T22:33:21.275Z,96620.11
2018-05-16T22:35:53.358Z,96605.61
2018-05-16T22:38:25.457Z,96613.86
2018-05-16T22:40:57.320Z,96616.48
2018-05-16T22:43:23.236Z,96617.47
2018-05-16T22:45:55.369Z,96621.69
2018-05-16T22:48:21.226Z,96617.73
2018-05-16T22:50:47.033Z,96616.77
2018-05-16T22:53:19.917Z,96614.14
2018-05-16T22:55:45.788Z,96611.34
2018-05-16T22:58:11.613Z,96607.97
2018-05-16T23:00:37.452Z,96619.59
2018-05-16T23:03:03.313Z,96622.83
2018-05-16T23:05:29.171Z,96620.01
2018-05-16T23:07:55.013Z,96621.07
2018-05-16T23:10:20.865Z,96611.92
2018-05-16T23:12:46.735Z,96614.70
2018-05-16T23:15:12.584Z,96608.01
2018-05-16T23:17:38.433Z,96610.66
2018-05-16T23:20:04.387Z,96604.41
2018-05-16T23:22:30.240Z,96607.45
2018-05-16T23:24:56.092Z,96603.55
2018-05-16T23:27:21.940Z,96599.30
2018-05-16T23:29:47.777Z,96601.91
2018-05-16T23:32:13.624Z,96605.67
2018-05-16T23:34:39.505Z,96602.73
2018-05-16T23:37:05.413Z,96607.14
2018-05-16T23:39:31.278Z,96605.94
2018-05-16T23:41:57.144Z,96611.58
2018-05-16T23:44:22.998Z,96618.27
2018-05-16T23:46:48.832Z,96611.47
2018-05-16T23:49:14.654Z,96612.36
2018-05-16T23:51:40.509Z,96606.75
2018-05-16T23:54:06.361Z,96604.34
2018-05-16T23:56:32.213Z,96610.05
2018-05-16T23:58:58.030Z,96611.87
